sensor_id;sensor_type;location;lat;lon;timestamp;temperature;humidity
4366;DHT22;2196;47.422;9.656;2024-03-23T10:14:37;8.50;99.90
4366;DHT22;2196;47.422;9.656;2024-03-23T10:17:15;8.60;99.90
4366;DHT22;2196;47.422;9.656;2024-03-23T10:19:43;8.40;99.90
4366;DHT22;2196;47.422;9.656;2024-03-23T10:22:17;8.40;99.90
4366;DHT22;2196;47.422;9.656;2024-03-23T10:24:43;8.30;99.90
4366;DHT22;2196;47.422;9.656;2024-03-23T10:27:15;8.30;99.90
4366;DHT22;2196;47.422;9.656;2024-03-23T10:29:42;8.30;99.90
4366;DHT22;2196;47.422;9.656;2024-03-23T10:32:10;8.30;99.90
4366;DHT22;2196;47.422;9.656;2024-03-23T10:34:37;8.10;99.90
4366;DHT22;2196;47.422;9.656;2024-03-23T10:37:05;8.10;99.90
4366;DHT22;2196;47.422;9.656;2024-03-23T10:39:34;8.10;99.90
4366;DHT22;2196;47.422;9.656;2024-03-23T10:42:06;8.10;99.90
4366;DHT22;2196;47.422;9.656;2024-03-23T10:44:32;8.00;99.90
4366;DHT22;2196;47.422;9.656;2024-03-23T10:47:00;8.00;99.90
4366;DHT22;2196;47.422;9.656;2024-03-23T10:49:28;8.00;99.90
4366;DHT22;2196;47.422;9.656;2024-03-23T10:51:57;8.00;99.90
4366;DHT22;2196;47.422;9.656;2024-03-23T10:54:24;8.10;99.90
4366;DHT22;2196;47.422;9.656;2024-03-23T10:56:57;8.20;99.90
4366;DHT22;2196;47.422;9.656;2024-03-23T10:59:25;8.30;99.90
4366;DHT22;2196;47.422;9.656;2024-03-23T11:01:56;8.40;99.90
4366;DHT22;2196;47.422;9.656;2024-03-23T11:04:33;8.40;99.90
4366;DHT22;2196;47.422;9.656;2024-03-23T11:07:00;8.40;99.90
4366;DHT22;2196;47.422;9.656;2024-03-23T11:09:44;8.30;99.90
4366;DHT22;2196;47.422;9.656;2024-03-23T11:12:27;8.20;99.90
4366;DHT22;2196;47.422;9.656;2024-03-23T11:14:55;8.00;99.90
4366;DHT22;2196;47.422;9.656;2024-03-23T11:17:24;7.90;99.90
4366;DHT22;2196;47.422;9.656;2024-03-23T11:19:54;8.00;99.90
4366;DHT22;2196;47.422;9.656;2024-03-23T11:22:43;7.90;99.90
4366;DHT22;2196;47.422;9.656;2024-03-23T11:25:17;8.00;99.90
4366;DHT22;2196;47.422;9.656;2024-03-23T11:27:48;8.00;99.90
4366;DHT22;2196;47.422;9.656;2024-03-23T11:30:19;8.10;99.90
4366;DHT22;2196;47.422;9.656;2024-03-23T11:32:50;8.10;99.90
4366;DHT22;2196;47.422;9.656;2024-03-23T11:35:27;8.20;99.90
4366;DHT22;2196;47.422;9.656;2024-03-23T11:38:07;8.20;99.90
4366;DHT22;2196;47.422;9.656;2024-03-23T11:40:34;8.20;99.90
4366;DHT22;2196;47.422;9.656;2024-03-23T11:43:04;8.30;99.90
4366;DHT22;2196;47.422;9.656;2024-03-23T11:45:35;8.20;99.90
4366;DHT22;2196;47.422;9.656;2024-03-23T11:48:06;8.20;99.90
4366;DHT22;2196;47.422;9.656;2024-03-23T11:50:33;8.30;99.90
4366;DHT22;2196;47.422;9.656;2024-03-23T11:53:13;8.30;99.90
4366;DHT22;2196;47.422;9.656;2024-03-23T11:55:47;8.40;99.90
4366;DHT22;2196;47.422;9.656;2024-03-23T12:18:11;8.40;99.90
4366;DHT22;2196;47.422;9.656;2024-03-23T13:32:01;11.20;99.90
4366;DHT22;2196;47.422;9.656;2024-03-23T13:34:27;11.30;99.90
4366;DHT22;2196;47.422;9.656;2024-03-23T13:36:56;11.20;99.90
4366;DHT22;2196;47.422;9.656;2024-03-23T13:39:25;11.20;99.90
4366;DHT22;2196;47.422;9.656;2024-03-23T13:41:53;11.20;99.90
4366;DHT22;2196;47.422;9.656;2024-03-23T13:44:20;11.00;99.90
4366;DHT22;2196;47.422;9.656;2024-03-23T13:46:48;10.80;99.90
4366;DHT22;2196;47.422;9.656;2024-03-23T13:49:25;10.70;99.90
4366;DHT22;2196;47.422;9.656;2024-03-23T13:51:53;10.60;99.90
4366;DHT22;2196;47.422;9.656;2024-03-23T13:54:19;10.50;99.90
4366;DHT22;2196;47.422;9.656;2024-03-23T13:56:49;10.10;99.90
4366;DHT22;2196;47.422;9.656;2024-03-23T13:59:15;9.90;99.90
4366;DHT22;2196;47.422;9.656;2024-03-23T14:01:42;9.80;99.90
4366;DHT22;2196;47.422;9.656;2024-03-23T14:04:09;9.70;99.90
4366;DHT22;2196;47.422;9.656;2024-03-23T14:06:36;9.50;99.90
4366;DHT22;2196;47.422;9.656;2024-03-23T14:09:03;9.50;99.90
4366;DHT22;2196;47.422;9.656;2024-03-23T14:11:31;9.50;99.90
4366;DHT22;2196;47.422;9.656;2024-03-23T14:13:58;9.60;99.90
4366;DHT22;2196;47.422;9.656;2024-03-23T14:16:25;9.70;99.90
4366;DHT22;2196;47.422;9.656;2024-03-23T14:18:51;9.80;99.90
4366;DHT22;2196;47.422;9.656;2024-03-23T14:21:18;9.90;99.90
4366;DHT22;2196;47.422;9.656;2024-03-23T14:23:44;10.00;99.90
4366;DHT22;2196;47.422;9.656;2024-03-23T14:26:14;9.90;99.90
4366;DHT22;2196;47.422;9.656;2024-03-23T14:28:40;9.90;99.90
4366;DHT22;2196;47.422;9.656;2024-03-23T14:31:08;10.00;99.90
4366;DHT22;2196;47.422;9.656;2024-03-23T14:33:37;10.20;99.90
4366;DHT22;2196;47.422;9.656;2024-03-23T14:36:07;10.40;99.90
4366;DHT22;2196;47.422;9.656;2024-03-23T14:38:33;10.50;99.90
4366;DHT22;2196;47.422;9.656;2024-03-23T14:41:01;10.60;99.90
4366;DHT22;2196;47.422;9.656;2024-03-23T14:43:28;10.70;99.90
4366;DHT22;2196;47.422;9.656;2024-03-23T14:46:10;10.80;99.90
4366;DHT22;2196;47.422;9.656;2024-03-23T14:48:36;10.90;99.90
4366;DHT22;2196;47.422;9.656;2024-03-23T14:51:04;11.00;99.90
4366;DHT22;2196;47.422;9.656;2024-03-23T14:53:31;10.90;99.90
4366;DHT22;2196;47.422;9.656;2024-03-23T14:55:59;10.90;99.90
4366;DHT22;2196;47.422;9.656;2024-03-23T14:58:26;11.00;99.90
4366;DHT22;2196;47.422;9.656;2024-03-23T15:00:53;11.20;99.90
4366;DHT22;2196;47.422;9.656;2024-03-23T15:03:20;11.40;99.90
4366;DHT22;2196;47.422;9.656;2024-03-23T15:05:52;11.60;99.90
4366;DHT22;2196;47.422;9.656;2024-03-23T15:08:19;11.80;99.90
4366;DHT22;2196;47.422;9.656;2024-03-23T15:10:46;11.70;99.90
4366;DHT22;2196;47.422;9.656;2024-03-23T15:13:12;11.60;99.90
4366;DHT22;2196;47.422;9.656;2024-03-23T15:15:40;11.10;99.90
4366;DHT22;2196;47.422;9.656;2024-03-23T15:18:07;10.90;99.90
4366;DHT22;2196;47.422;9.656;2024-03-23T15:20:35;10.70;99.90
4366;DHT22;2196;47.422;9.656;2024-03-23T15:23:02;10.60;99.90
4366;DHT22;2196;47.422;9.656;2024-03-23T15:25:29;10.60;99.90
4366;DHT22;2196;47.422;9.656;2024-03-23T15:27:56;10.60;99.90
4366;DHT22;2196;47.422;9.656;2024-03-23T15:30:24;10.70;99.90
4366;DHT22;2196;47.422;9.656;2024-03-23T15:32:51;10.70;99.90
4366;DHT22;2196;47.422;9.656;2024-03-23T15:35:18;10.80;99.90
4366;DHT22;2196;47.422;9.656;2024-03-23T15:37:46;10.90;99.90
4366;DHT22;2196;47.422;9.656;2024-03-23T15:40:13;11.10;99.90
4366;DHT22;2196;47.422;9.656;2024-03-23T15:42:39;11.00;99.90
4366;DHT22;2196;47.422;9.656;2024-03-23T15:45:07;11.10;99.90
4366;DHT22;2196;47.422;9.656;2024-03-23T15:47:35;11.30;99.90
4366;DHT22;2196;47.422;9.656;2024-03-23T15:50:02;11.10;99.90
4366;DHT22;2196;47.422;9.656;2024-03-23T15:52:34;10.90;99.90
4366;DHT22;2196;47.422;9.656;2024-03-23T15:55:03;10.90;99.90
4366;DHT22;2196;47.422;9.656;2024-03-23T15:57:32;10.90;99.90
4366;DHT22;2196;47.422;9.656;2024-03-23T15:59:59;10.90;99.90
4366;DHT22;2196;47.422;9.656;2024-03-23T16:02:25;10.90;99.90
4366;DHT22;2196;47.422;9.656;2024-03-23T16:04:53;11.00;99.90
4366;DHT22;2196;47.422;9.656;2024-03-23T16:07:19;11.00;99.90
4366;DHT22;2196;47.422;9.656;2024-03-23T16:09:46;10.80;99.90
4366;DHT22;2196;47.422;9.656;2024-03-23T16:12:14;10.80;99.90
4366;DHT22;2196;47.422;9.656;2024-03-23T16:14:41;10.80;99.90
4366;DHT22;2196;47.422;9.656;2024-03-23T16:17:07;10.60;99.90
4366;DHT22;2196;47.422;9.656;2024-03-23T16:19:34;10.40;99.90
4366;DHT22;2196;47.422;9.656;2024-03-23T16:22:00;10.40;99.90
4366;DHT22;2196;47.422;9.656;2024-03-23T16:24:27;10.40;99.90
4366;DHT22;2196;47.422;9.656;2024-03-23T16:26:53;10.30;99.90
4366;DHT22;2196;47.422;9.656;2024-03-23T16:29:21;10.40;99.90
4366;DHT22;2196;47.422;9.656;2024-03-23T16:31:47;10.40;99.90
4366;DHT22;2196;47.422;9.656;2024-03-23T16:34:14;10.30;99.90
4366;DHT22;2196;47.422;9.656;2024-03-23T16:36:40;10.20;99.90
4366;DHT22;2196;47.422;9.656;2024-03-23T16:39:07;10.10;99.90
4366;DHT22;2196;47.422;9.656;2024-03-23T16:41:34;9.90;99.90
4366;DHT22;2196;47.422;9.656;2024-03-23T16:44:01;9.80;99.90
4366;DHT22;2196;47.422;9.656;2024-03-23T16:46:29;9.70;99.90
4366;DHT22;2196;47.422;9.656;2024-03-23T16:48:56;9.50;99.90
4366;DHT22;2196;47.422;9.656;2024-03-23T16:51:22;9.50;99.90
4366;DHT22;2196;47.422;9.656;2024-03-23T16:53:49;9.40;99.90
4366;DHT22;2196;47.422;9.656;2024-03-23T16:56:15;9.40;99.90
4366;DHT22;2196;47.422;9.656;2024-03-23T16:58:42;9.50;99.90
4366;DHT22;2196;47.422;9.656;2024-03-23T17:01:10;9.30;99.90
4366;DHT22;2196;47.422;9.656;2024-03-23T17:03:46;9.20;99.90
4366;DHT22;2196;47.422;9.656;2024-03-23T17:06:12;9.20;99.90
4366;DHT22;2196;47.422;9.656;2024-03-23T17:08:41;9.20;99.90
4366;DHT22;2196;47.422;9.656;2024-03-23T17:11:07;9.00;99.90
4366;DHT22;2196;47.422;9.656;2024-03-23T17:13:35;9.00;99.90
4366;DHT22;2196;47.422;9.656;2024-03-23T17:16:01;9.00;99.90
4366;DHT22;2196;47.422;9.656;2024-03-23T17:18:28;8.80;99.90
4366;DHT22;2196;47.422;9.656;2024-03-23T17:20:56;8.80;99.90
4366;DHT22;2196;47.422;9.656;2024-03-23T17:23:23;8.80;99.90
4366;DHT22;2196;47.422;9.656;2024-03-23T17:25:49;8.70;99.90
4366;DHT22;2196;47.422;9.656;2024-03-23T17:28:16;8.60;99.90
4366;DHT22;2196;47.422;9.656;2024-03-23T17:30:43;8.60;99.90
4366;DHT22;2196;47.422;9.656;2024-03-23T17:33:10;8.60;99.90
4366;DHT22;2196;47.422;9.656;2024-03-23T17:35:36;8.60;99.90
4366;DHT22;2196;47.422;9.656;2024-03-23T17:38:05;8.50;99.90
4366;DHT22;2196;47.422;9.656;2024-03-23T17:40:31;8.40;99.90
4366;DHT22;2196;47.422;9.656;2024-03-23T17:42:58;8.40;99.90
4366;DHT22;2196;47.422;9.656;2024-03-23T17:45:24;8.50;99.90
4366;DHT22;2196;47.422;9.656;2024-03-23T17:47:51;8.50;99.90
4366;DHT22;2196;47.422;9.656;2024-03-23T17:50:18;8.40;99.90
4366;DHT22;2196;47.422;9.656;2024-03-23T17:52:50;8.30;99.90
4366;DHT22;2196;47.422;9.656;2024-03-23T17:55:17;8.30;99.90
4366;DHT22;2196;47.422;9.656;2024-03-23T17:57:45;8.20;99.90
4366;DHT22;2196;47.422;9.656;2024-03-23T18:00:12;8.20;99.90
4366;DHT22;2196;47.422;9.656;2024-03-23T18:02:40;8.20;99.90
4366;DHT22;2196;47.422;9.656;2024-03-23T18:05:07;8.20;99.90
4366;DHT22;2196;47.422;9.656;2024-03-23T18:07:34;8.10;99.90
4366;DHT22;2196;47.422;9.656;2024-03-23T18:10:00;8.10;99.90
4366;DHT22;2196;47.422;9.656;2024-03-23T18:12:29;8.10;99.90
4366;DHT22;2196;47.422;9.656;2024-03-23T18:14:55;8.00;99.90
4366;DHT22;2196;47.422;9.656;2024-03-23T18:17:23;8.00;99.90
4366;DHT22;2196;47.422;9.656;2024-03-23T18:19:49;8.00;99.90
4366;DHT22;2196;47.422;9.656;2024-03-23T18:22:16;8.00;99.90
4366;DHT22;2196;47.422;9.656;2024-03-23T18:24:42;8.00;99.90
4366;DHT22;2196;47.422;9.656;2024-03-23T18:27:09;8.00;99.90
4366;DHT22;2196;47.422;9.656;2024-03-23T18:29:38;8.00;99.90
4366;DHT22;2196;47.422;9.656;2024-03-23T18:32:06;8.00;99.90
4366;DHT22;2196;47.422;9.656;2024-03-23T18:34:32;7.90;99.90
4366;DHT22;2196;47.422;9.656;2024-03-23T18:36:59;7.90;99.90
4366;DHT22;2196;47.422;9.656;2024-03-23T18:39:25;7.90;99.90
4366;DHT22;2196;47.422;9.656;2024-03-23T18:41:53;8.00;99.90
4366;DHT22;2196;47.422;9.656;2024-03-23T18:44:19;8.10;99.90
4366;DHT22;2196;47.422;9.656;2024-03-23T18:46:48;8.10;99.90
4366;DHT22;2196;47.422;9.656;2024-03-23T18:49:14;8.00;99.90
4366;DHT22;2196;47.422;9.656;2024-03-23T18:51:42;8.00;99.90
4366;DHT22;2196;47.422;9.656;2024-03-23T18:54:08;8.10;99.90
4366;DHT22;2196;47.422;9.656;2024-03-23T18:56:36;8.10;99.90
4366;DHT22;2196;47.422;9.656;2024-03-23T18:59:01;8.10;99.90
4366;DHT22;2196;47.422;9.656;2024-03-23T19:01:28;8.10;99.90
4366;DHT22;2196;47.422;9.656;2024-03-23T19:03:56;8.10;99.90
4366;DHT22;2196;47.422;9.656;2024-03-23T19:06:23;8.10;99.90
4366;DHT22;2196;47.422;9.656;2024-03-23T19:08:49;8.10;99.90
4366;DHT22;2196;47.422;9.656;2024-03-23T19:11:16;7.80;99.90
4366;DHT22;2196;47.422;9.656;2024-03-23T19:13:42;7.70;99.90
4366;DHT22;2196;47.422;9.656;2024-03-23T19:16:09;7.50;99.90
4366;DHT22;2196;47.422;9.656;2024-03-23T19:18:35;7.20;99.90
4366;DHT22;2196;47.422;9.656;2024-03-23T19:21:04;7.00;99.90
4366;DHT22;2196;47.422;9.656;2024-03-23T19:23:33;6.90;99.90
4366;DHT22;2196;47.422;9.656;2024-03-23T19:26:01;6.80;99.90
4366;DHT22;2196;47.422;9.656;2024-03-23T19:28:27;6.80;99.90
4366;DHT22;2196;47.422;9.656;2024-03-23T19:30:55;6.60;99.90
4366;DHT22;2196;47.422;9.656;2024-03-23T19:33:21;6.60;99.90
4366;DHT22;2196;47.422;9.656;2024-03-23T19:35:54;6.50;99.90
4366;DHT22;2196;47.422;9.656;2024-03-23T19:38:22;6.50;99.90
4366;DHT22;2196;47.422;9.656;2024-03-23T19:40:53;6.40;99.90
4366;DHT22;2196;47.422;9.656;2024-03-23T19:43:19;6.50;99.90
4366;DHT22;2196;47.422;9.656;2024-03-23T19:45:46;6.50;99.90
4366;DHT22;2196;47.422;9.656;2024-03-23T19:48:12;6.50;99.90
4366;DHT22;2196;47.422;9.656;2024-03-23T19:50:39;6.30;99.90
4366;DHT22;2196;47.422;9.656;2024-03-23T19:53:05;6.30;99.90
4366;DHT22;2196;47.422;9.656;2024-03-23T19:55:35;6.20;99.90
4366;DHT22;2196;47.422;9.656;2024-03-23T19:58:03;6.10;99.90
4366;DHT22;2196;47.422;9.656;2024-03-23T20:00:31;6.00;99.90
4366;DHT22;2196;47.422;9.656;2024-03-23T20:02:57;5.90;99.90
4366;DHT22;2196;47.422;9.656;2024-03-23T20:05:26;5.90;99.90
4366;DHT22;2196;47.422;9.656;2024-03-23T20:07:53;5.80;99.90
4366;DHT22;2196;47.422;9.656;2024-03-23T20:10:20;5.70;99.90
4366;DHT22;2196;47.422;9.656;2024-03-23T20:12:48;5.70;99.90
4366;DHT22;2196;47.422;9.656;2024-03-23T20:15:16;5.60;99.90
4366;DHT22;2196;47.422;9.656;2024-03-23T20:17:42;5.20;99.90
4366;DHT22;2196;47.422;9.656;2024-03-23T20:22:37;5.50;99.90
4366;DHT22;2196;47.422;9.656;2024-03-23T20:25:04;5.70;99.90
4366;DHT22;2196;47.422;9.656;2024-03-23T20:27:31;5.80;99.90
4366;DHT22;2196;47.422;9.656;2024-03-23T20:29:59;5.70;99.90
4366;DHT22;2196;47.422;9.656;2024-03-23T20:32:25;5.60;99.90
4366;DHT22;2196;47.422;9.656;2024-03-23T20:34:52;5.70;99.90
4366;DHT22;2196;47.422;9.656;2024-03-23T20:37:18;5.50;99.90
4366;DHT22;2196;47.422;9.656;2024-03-23T20:39:45;5.40;99.90
4366;DHT22;2196;47.422;9.656;2024-03-23T20:42:11;5.30;99.90
4366;DHT22;2196;47.422;9.656;2024-03-23T20:44:38;5.30;99.90
4366;DHT22;2196;47.422;9.656;2024-03-23T20:47:06;5.20;99.90
4366;DHT22;2196;47.422;9.656;2024-03-23T20:49:35;5.20;99.90
4366;DHT22;2196;47.422;9.656;2024-03-23T20:52:02;5.30;99.90
4366;DHT22;2196;47.422;9.656;2024-03-23T20:54:30;5.30;99.90
4366;DHT22;2196;47.422;9.656;2024-03-23T20:56:56;5.40;99.90
4366;DHT22;2196;47.422;9.656;2024-03-23T20:59:26;5.30;99.90
4366;DHT22;2196;47.422;9.656;2024-03-23T21:01:53;5.30;99.90
4366;DHT22;2196;47.422;9.656;2024-03-23T21:04:22;5.40;99.90
4366;DHT22;2196;47.422;9.656;2024-03-23T21:06:49;5.50;99.90
4366;DHT22;2196;47.422;9.656;2024-03-23T21:09:16;5.50;99.90
4366;DHT22;2196;47.422;9.656;2024-03-23T21:11:42;5.60;99.90
4366;DHT22;2196;47.422;9.656;2024-03-23T21:14:09;5.50;99.90
4366;DHT22;2196;47.422;9.656;2024-03-23T21:16:36;5.50;99.90
4366;DHT22;2196;47.422;9.656;2024-03-23T21:19:02;5.50;99.90
4366;DHT22;2196;47.422;9.656;2024-03-23T21:21:31;5.40;99.90
4366;DHT22;2196;47.422;9.656;2024-03-23T21:23:57;5.50;99.90
4366;DHT22;2196;47.422;9.656;2024-03-23T21:26:24;5.50;99.90
4366;DHT22;2196;47.422;9.656;2024-03-23T21:28:51;5.40;99.90
4366;DHT22;2196;47.422;9.656;2024-03-23T21:31:18;5.30;99.90
4366;DHT22;2196;47.422;9.656;2024-03-23T21:33:44;5.20;99.90
4366;DHT22;2196;47.422;9.656;2024-03-23T21:36:11;5.20;99.90
4366;DHT22;2196;47.422;9.656;2024-03-23T21:38:38;5.20;99.90
4366;DHT22;2196;47.422;9.656;2024-03-23T21:41:05;5.20;99.90
4366;DHT22;2196;47.422;9.656;2024-03-23T21:43:32;5.20;99.90
4366;DHT22;2196;47.422;9.656;2024-03-23T21:45:59;5.30;99.90
4366;DHT22;2196;47.422;9.656;2024-03-23T21:48:26;5.10;99.90
4366;DHT22;2196;47.422;9.656;2024-03-23T21:50:59;5.10;99.90
4366;DHT22;2196;47.422;9.656;2024-03-23T21:53:25;5.10;99.90
4366;DHT22;2196;47.422;9.656;2024-03-23T21:55:53;5.10;99.90
4366;DHT22;2196;47.422;9.656;2024-03-23T21:58:22;5.00;99.90
4366;DHT22;2196;47.422;9.656;2024-03-23T22:00:49;5.20;99.90
4366;DHT22;2196;47.422;9.656;2024-03-23T22:03:16;5.30;99.90
4366;DHT22;2196;47.422;9.656;2024-03-23T22:05:43;5.30;99.90
4366;DHT22;2196;47.422;9.656;2024-03-23T22:08:09;5.30;99.90
4366;DHT22;2196;47.422;9.656;2024-03-23T22:10:36;5.40;99.90
4366;DHT22;2196;47.422;9.656;2024-03-23T22:13:06;5.30;99.90
4366;DHT22;2196;47.422;9.656;2024-03-23T22:15:33;5.30;99.90
4366;DHT22;2196;47.422;9.656;2024-03-23T22:17:59;5.30;99.90
4366;DHT22;2196;47.422;9.656;2024-03-23T22:20:27;5.30;99.90
4366;DHT22;2196;47.422;9.656;2024-03-23T22:22:55;5.20;99.90
4366;DHT22;2196;47.422;9.656;2024-03-23T22:25:23;5.20;99.90
4366;DHT22;2196;47.422;9.656;2024-03-23T22:27:52;5.10;99.90
4366;DHT22;2196;47.422;9.656;2024-03-23T22:30:21;5.10;99.90
4366;DHT22;2196;47.422;9.656;2024-03-23T22:32:49;5.00;99.90
4366;DHT22;2196;47.422;9.656;2024-03-23T22:35:16;4.90;99.90
4366;DHT22;2196;47.422;9.656;2024-03-23T22:37:43;4.90;99.90
4366;DHT22;2196;47.422;9.656;2024-03-23T22:40:11;4.90;99.90
4366;DHT22;2196;47.422;9.656;2024-03-23T22:42:37;5.00;99.90
4366;DHT22;2196;47.422;9.656;2024-03-23T22:45:05;4.90;99.90
4366;DHT22;2196;47.422;9.656;2024-03-23T22:47:33;4.90;99.90
4366;DHT22;2196;47.422;9.656;2024-03-23T22:50:01;4.90;99.90
4366;DHT22;2196;47.422;9.656;2024-03-23T22:52:27;4.90;99.90
4366;DHT22;2196;47.422;9.656;2024-03-23T22:54:54;5.00;99.90
4366;DHT22;2196;47.422;9.656;2024-03-23T22:57:20;4.90;99.90
4366;DHT22;2196;47.422;9.656;2024-03-23T22:59:47;4.90;99.90
4366;DHT22;2196;47.422;9.656;2024-03-23T23:02:13;4.90;99.90
4366;DHT22;2196;47.422;9.656;2024-03-23T23:04:42;4.70;99.90
4366;DHT22;2196;47.422;9.656;2024-03-23T23:07:08;4.60;99.90
4366;DHT22;2196;47.422;9.656;2024-03-23T23:09:35;4.80;99.90
4366;DHT22;2196;47.422;9.656;2024-03-23T23:12:01;4.70;99.90
4366;DHT22;2196;47.422;9.656;2024-03-23T23:14:28;4.60;99.90
4366;DHT22;2196;47.422;9.656;2024-03-23T23:16:55;4.70;99.90
4366;DHT22;2196;47.422;9.656;2024-03-23T23:19:22;4.70;99.90
4366;DHT22;2196;47.422;9.656;2024-03-23T23:21:49;4.40;99.90
4366;DHT22;2196;47.422;9.656;2024-03-23T23:24:16;4.30;99.90
4366;DHT22;2196;47.422;9.656;2024-03-23T23:26:42;4.30;99.90
4366;DHT22;2196;47.422;9.656;2024-03-23T23:29:09;4.30;99.90
4366;DHT22;2196;47.422;9.656;2024-03-23T23:31:35;4.10;99.90
4366;DHT22;2196;47.422;9.656;2024-03-23T23:34:02;4.10;99.90
4366;DHT22;2196;47.422;9.656;2024-03-23T23:36:28;4.00;99.90
4366;DHT22;2196;47.422;9.656;2024-03-23T23:38:56;4.00;99.90
4366;DHT22;2196;47.422;9.656;2024-03-23T23:41:22;4.00;99.90
4366;DHT22;2196;47.422;9.656;2024-03-23T23:43:56;4.00;99.90
4366;DHT22;2196;47.422;9.656;2024-03-23T23:46:23;3.90;99.90
4366;DHT22;2196;47.422;9.656;2024-03-23T23:48:50;4.00;99.90
4366;DHT22;2196;47.422;9.656;2024-03-23T23:51:17;3.90;99.90
4366;DHT22;2196;47.422;9.656;2024-03-23T23:53:44;4.00;99.90
4366;DHT22;2196;47.422;9.656;2024-03-23T23:56:11;4.00;99.90
4366;DHT22;2196;47.422;9.656;2024-03-23T23:58:39;4.00;99.90
